Time;durP1;ratioP1;P1;durP2;ratioP2;P2;SDS_P1;SDS_P2;PMS_P1;PMS_P2;Temp;Humidity;BMP_temperature;BMP_pressure;BME280_temperature;BME280_humidity;BME280_pressure;Samples;Min_cycle;Max_cycle;Signal;HPM_P1;HPM_P2
2023/10/31 00:01:34;;;;;;;6.88;1.77;;;;;;;;;;5020259;28;20048;-86
2023/10/31 00:04:00;;;;;;;3.90;1.45;;;;;;;;;;5020406;28;20052;-85
2023/10/31 00:06:26;;;;;;;5.03;1.60;;;;;;;;;;5039455;28;20047;-85
2023/10/31 00:08:52;;;;;;;2.60;1.35;;;;;;;;;;5056388;28;20142;-85
2023/10/31 00:11:18;;;;;;;3.85;1.17;;;;;;;;;;5057134;28;20512;-83
2023/10/31 00:13:44;;;;;;;1.60;1.40;;;;;;;;;;5057324;28;20040;-84
2023/10/31 00:16:11;;;;;;;2.25;1.50;;;;;;;;;;5040217;28;20048;-85
2023/10/31 00:18:37;;;;;;;6.22;1.98;;;;;;;;;;5056772;28;20032;-85
2023/10/31 00:21:04;;;;;;;5.10;1.88;;;;;;;;;;5040044;28;20040;-84
2023/10/31 00:23:30;;;;;;;5.65;2.30;;;;;;;;;;5056663;28;20407;-86
2023/10/31 00:25:56;;;;;;;3.45;2.33;;;;;;;;;;5023317;28;20032;-84
2023/10/31 00:28:22;;;;;;;7.20;2.25;;;;;;;;;;5038923;28;20048;-85
2023/10/31 00:30:48;;;;;;;5.03;2.20;;;;;;;;;;5039381;28;20059;-85
2023/10/31 00:33:14;;;;;;;3.10;1.80;;;;;;;;;;5039754;28;20135;-83
2023/10/31 00:35:40;;;;;;;5.82;1.95;;;;;;;;;;5023189;28;20051;-85
2023/10/31 00:38:06;;;;;;;5.60;1.85;;;;;;;;;;5022363;28;20040;-85
2023/10/31 00:40:32;;;;;;;4.95;2.05;;;;;;;;;;5040131;28;20397;-84
2023/10/31 00:42:58;;;;;;;8.57;2.10;;;;;;;;;;5022768;28;20668;-84
2023/10/31 00:45:25;;;;;;;5.30;1.48;;;;;;;;;;5023627;28;20052;-84
2023/10/31 00:47:51;;;;;;;5.20;1.88;;;;;;;;;;5056069;28;20132;-84
2023/10/31 00:50:17;;;;;;;4.35;1.48;;;;;;;;;;5039486;28;20075;-84
2023/10/31 00:52:43;;;;;;;6.65;1.85;;;;;;;;;;5039374;28;20044;-83
2023/10/31 00:55:09;;;;;;;4.40;1.58;;;;;;;;;;5055850;28;20059;-81
2023/10/31 00:57:35;;;;;;;2.30;1.65;;;;;;;;;;5055440;28;20052;-84
2023/10/31 01:00:01;;;;;;;6.00;2.22;;;;;;;;;;5055769;28;20124;-84
2023/10/31 01:02:27;;;;;;;6.05;1.80;;;;;;;;;;5039395;28;20040;-83
2023/10/31 01:04:53;;;;;;;5.28;1.88;;;;;;;;;;5039296;28;20040;-82
2023/10/31 01:07:19;;;;;;;8.32;1.85;;;;;;;;;;5055878;28;20047;-82
2023/10/31 01:09:45;;;;;;;6.68;1.85;;;;;;;;;;5039241;28;20044;-80
2023/10/31 01:12:11;;;;;;;5.97;1.98;;;;;;;;;;5022812;28;20600;-84
2023/10/31 01:14:37;;;;;;;6.90;1.60;;;;;;;;;;5038719;28;20127;-84
2023/10/31 01:17:03;;;;;;;4.05;1.50;;;;;;;;;;5038350;28;20040;-82
2023/10/31 01:19:29;;;;;;;6.85;1.63;;;;;;;;;;5039013;28;20463;-83
2023/10/31 01:21:55;;;;;;;6.95;1.10;;;;;;;;;;5055519;28;20089;-83
2023/10/31 01:24:23;;;;;;;10.25;1.42;;;;;;;;;;5038896;28;20044;-83
2023/10/31 01:26:49;;;;;;;2.08;1.23;;;;;;;;;;5055727;28;20059;-83
2023/10/31 01:29:15;;;;;;;6.10;1.25;;;;;;;;;;5055220;28;20080;-82
2023/10/31 01:31:41;;;;;;;2.13;1.13;;;10.20;99.90;;;;;;5054655;28;20059;-84
2023/10/31 01:34:08;;;;;;;3.50;1.10;;;10.20;99.90;;;;;;5055290;28;20044;-82
2023/10/31 01:36:34;;;;;;;4.82;1.20;;;;;;;;;;5055562;28;20044;-83
2023/10/31 01:39:00;;;;;;;5.15;1.10;;;;;;;;;;5021694;28;20059;-83
2023/10/31 01:41:26;;;;;;;2.85;1.15;;;10.20;99.90;;;;;;5055284;28;20040;-83
2023/10/31 01:43:52;;;;;;;2.20;1.20;;;;;;;;;;5055268;28;20072;-83
2023/10/31 01:46:18;;;;;;;4.18;1.50;;;;;;;;;;5054921;28;20432;-83
2023/10/31 01:48:44;;;;;;;1.33;1.10;;;;;;;;;;5022117;28;20501;-80
2023/10/31 01:51:10;;;;;;;4.63;1.45;;;;;;;;;;5038336;28;20041;-82
2023/10/31 01:53:37;;;;;;;3.70;1.40;;;10.20;99.90;;;;;;5038320;28;20122;-81
2023/10/31 01:56:04;;;;;;;4.50;1.55;;;;;;;;;;5054779;28;20127;-81
2023/10/31 01:58:37;;;;;;;8.77;1.77;;;10.20;99.90;;;;;;5020608;28;20048;-80
2023/10/31 02:01:04;;;;;;;4.50;1.87;;;10.20;99.90;;;;;;5038520;28;20048;-80
2023/10/31 02:03:31;;;;;;;2.78;1.60;;;;;;;;;;5037419;28;20298;-80
2023/10/31 02:05:57;;;;;;;4.75;1.80;;;;;;;;;;5038124;28;20401;-80
2023/10/31 02:08:24;;;;;;;7.22;1.98;;;10.00;99.90;;;;;;5054795;28;20049;-83
2023/10/31 02:10:50;;;;;;;5.78;2.65;;;;;;;;;;5038493;28;20048;-83
2023/10/31 02:13:17;;;;;;;5.38;1.85;;;;;;;;;;5038267;28;20504;-83
2023/10/31 02:15:44;;;;;;;3.05;1.77;;;;;;;;;;5037842;28;20574;-82
2023/10/31 02:18:10;;;;;;;4.25;2.67;;;;;;;;;;5037652;28;20040;-83
2023/10/31 02:20:36;;;;;;;5.40;2.00;;;;;;;;;;5037483;28;20082;-83
2023/10/31 02:23:03;;;;;;;2.67;1.90;;;10.10;99.90;;;;;;5037939;28;20055;-84
2023/10/31 02:25:30;;;;;;;4.72;2.50;;;;;;;;;;5036923;28;20135;-83
2023/10/31 02:27:56;;;;;;;5.55;2.65;;;;;;;;;;5037434;28;20135;-82
2023/10/31 02:30:22;;;;;;;3.88;2.20;;;;;;;;;;5021261;28;20040;-83
2023/10/31 02:32:48;;;;;;;6.47;2.33;;;;;;;;;;5021271;28;20048;-83
2023/10/31 02:35:16;;;;;;;5.63;2.33;;;10.20;99.90;;;;;;5053844;28;20174;-83
2023/10/31 02:37:42;;;;;;;7.00;3.17;;;;;;;;;;5037613;28;20044;-82
2023/10/31 02:40:08;;;;;;;5.00;2.05;;;;;;;;;;5037386;28;20084;-83
2023/10/31 02:42:34;;;;;;;7.22;2.83;;;;;;;;;;5037755;28;20056;-82
2023/10/31 02:45:00;;;;;;;8.80;3.10;;;;;;;;;;5037379;28;20045;-81
2023/10/31 02:47:26;;;;;;;3.65;2.25;;;;;;;;;;5037767;28;20427;-84
2023/10/31 02:49:53;;;;;;;6.57;2.42;;;;;;;;;;5021172;28;20370;-84
2023/10/31 02:52:19;;;;;;;3.55;2.38;;;;;;;;;;5052434;28;20460;-83
2023/10/31 02:54:45;;;;;;;6.57;2.63;;;;;;;;;;5053505;28;20052;-82
2023/10/31 02:57:11;;;;;;;8.35;2.67;;;;;;;;;;5021015;28;20079;-82
2023/10/31 02:59:37;;;;;;;6.93;3.00;;;;;;;;;;5053625;28;20044;-83
2023/10/31 03:02:03;;;;;;;5.57;2.80;;;;;;;;;;5037275;28;20056;-83
2023/10/31 03:04:29;;;;;;;4.63;3.15;;;;;;;;;;5052604;28;20135;-83
2023/10/31 03:06:55;;;;;;;3.55;2.58;;;;;;;;;;5037255;28;20044;-84
2023/10/31 03:09:21;;;;;;;6.68;3.13;;;;;;;;;;5037297;28;20081;-82
2023/10/31 03:11:47;;;;;;;6.18;3.55;;;;;;;;;;5037204;28;20072;-83
2023/10/31 03:14:13;;;;;;;6.75;2.95;;;;;;;;;;5020654;28;20168;-83
2023/10/31 03:16:39;;;;;;;4.75;3.17;;;;;;;;;;5037051;28;20543;-82
2023/10/31 03:19:06;;;;;;;5.40;3.17;;;;;;;;;;5036821;28;20126;-81
2023/10/31 03:21:32;;;;;;;5.97;3.25;;;;;;;;;;5053910;28;20405;-83
2023/10/31 03:23:58;;;;;;;6.60;2.95;;;;;;;;;;5037388;28;20196;-82
2023/10/31 03:26:24;;;;;;;9.35;2.83;;;;;;;;;;5053687;28;20401;-84
2023/10/31 03:28:50;;;;;;;6.82;3.33;;;;;;;;;;5036700;28;20044;-82
2023/10/31 03:31:16;;;;;;;4.88;2.33;;;;;;;;;;5037072;28;20076;-84
2023/10/31 03:33:42;;;;;;;4.75;3.05;;;;;;;;;;5053629;28;20044;-82
2023/10/31 03:36:09;;;;;;;8.32;2.47;;;;;;;;;;5053345;28;20047;-81
2023/10/31 03:38:35;;;;;;;2.30;2.10;;;;;;;;;;5053305;28;20080;-83
2023/10/31 03:41:02;;;;;;;6.78;2.92;;;;;;;;;;5056060;28;20457;-83
2023/10/31 03:43:28;;;;;;;4.00;2.78;;;;;;;;;;5040844;28;20041;-81
2023/10/31 03:45:54;;;;;;;7.35;2.70;;;;;;;;;;5057747;28;20063;-82
2023/10/31 03:48:21;;;;;;;3.67;2.55;;;;;;;;;;5057379;28;20052;-81
2023/10/31 03:50:47;;;;;;;4.72;2.15;;;;;;;;;;5056343;28;20040;-82
2023/10/31 03:53:13;;;;;;;5.03;2.70;;;;;;;;;;5057293;28;20044;-81
2023/10/31 03:55:39;;;;;;;9.60;2.28;;;;;;;;;;5040502;28;20093;-81
2023/10/31 03:58:05;;;;;;;12.60;3.00;;;;;;;;;;5040688;28;20045;-82
2023/10/31 04:00:31;;;;;;;6.32;2.60;;;;;;;;;;5057536;28;20052;-82
2023/10/31 04:02:57;;;;;;;7.13;3.00;;;;;;;;;;5057198;28;20044;-82
2023/10/31 04:05:23;;;;;;;6.80;1.88;;;;;;;;;;5040464;28;20049;-81
2023/10/31 04:07:49;;;;;;;6.07;2.35;;;;;;;;;;5056750;28;20037;-82
2023/10/31 04:10:16;;;;;;;8.77;2.25;;;;;;;;;;5040011;28;20511;-82
2023/10/31 04:12:42;;;;;;;4.28;2.10;;;;;;;;;;5056742;28;20047;-83
2023/10/31 04:15:09;;;;;;;5.60;2.17;;;;;;;;;;5040364;28;20451;-83
2023/10/31 04:17:35;;;;;;;4.38;1.83;;;;;;;;;;5056913;28;20131;-82
2023/10/31 04:20:01;;;;;;;8.23;2.33;;;;;;;;;;5056757;28;20051;-82
2023/10/31 04:22:27;;;;;;;4.13;1.98;;;;;;;;;;5056337;28;20036;-84
2023/10/31 04:24:53;;;;;;;4.05;2.10;;;;;;;;;;5039570;28;20090;-82
2023/10/31 04:27:19;;;;;;;6.32;2.33;;;;;;;;;;5039711;28;20045;-83
2023/10/31 04:29:45;;;;;;;4.03;1.92;;;;;;;;;;5056721;28;20405;-83
2023/10/31 04:32:12;;;;;;;3.55;1.88;;;;;;;;;;5056812;28;20404;-84
2023/10/31 04:34:38;;;;;;;7.90;2.58;;;;;;;;;;5056678;28;20468;-83
2023/10/31 04:37:04;;;;;;;7.05;2.42;;;;;;;;;;5056338;28;20123;-83
2023/10/31 04:39:30;;;;;;;9.38;2.78;;;;;;;;;;5039360;28;20036;-83
2023/10/31 04:41:56;;;;;;;3.15;2.55;;;;;;;;;;5056190;28;20072;-83
2023/10/31 04:44:22;;;;;;;3.90;1.90;;;;;;;;;;5039521;28;20052;-83
2023/10/31 04:46:48;;;;;;;6.95;1.85;;;;;;;;;;5039158;28;20079;-84
2023/10/31 04:49:15;;;;;;;3.70;2.10;;;;;;;;;;5056407;28;20052;-84
2023/10/31 04:51:41;;;;;;;4.55;1.70;;;10.50;99.90;;;;;;5055810;28;20649;-82
2023/10/31 04:54:08;;;;;;;4.22;1.70;;;;;;;;;;5056069;28;20106;-83
2023/10/31 04:56:34;;;;;;;1.90;1.60;;;;;;;;;;5056244;28;20048;-83
2023/10/31 04:59:00;;;;;;;4.78;1.55;;;;;;;;;;5039539;28;20049;-83
2023/10/31 05:01:26;;;;;;;3.35;1.73;;;;;;;;;;5039574;28;20489;-82
2023/10/31 05:03:53;;;;;;;2.15;1.40;;;;;;;;;;5039507;28;20032;-82
2023/10/31 05:06:22;;;;;;;1.55;1.25;;;10.60;99.90;;;;;;5055387;28;20059;-82
2023/10/31 05:08:49;;;;;;;2.95;1.38;;;;;;;;;;5055408;28;20052;-83
2023/10/31 05:11:18;;;;;;;5.32;1.30;;;10.40;99.90;;;;;;5038980;28;20094;-82
2023/10/31 05:13:44;;;;;;;3.00;1.40;;;;;;;;;;5039598;28;20052;-83
2023/10/31 05:16:11;;;;;;;1.05;0.82;;;;;;;;;;5054972;28;20044;-83
2023/10/31 05:18:38;;;;;;;1.70;1.45;;;;;;;;;;5039110;28;20063;-82
2023/10/31 05:21:04;;;;;;;4.63;0.90;;;;;;;;;;5038894;28;20412;-82
2023/10/31 05:23:31;;;;;;;1.70;0.75;;;;;;;;;;5038660;28;20052;-82
2023/10/31 05:25:57;;;;;;;0.95;0.88;;;;;;;;;;5038913;28;20066;-83
2023/10/31 05:28:26;;;;;;;3.45;1.10;;;;;;;;;;5038477;28;20045;-84
2023/10/31 05:30:52;;;;;;;6.93;1.30;;;;;;;;;;5039065;28;20098;-83
2023/10/31 05:33:18;;;;;;;1.58;1.13;;;;;;;;;;5038982;28;20032;-84
2023/10/31 05:35:44;;;;;;;4.60;1.13;;;;;;;;;;5038687;28;20079;-83
2023/10/31 05:38:10;;;;;;;1.42;1.10;;;;;;;;;;5038606;28;20493;-82
2023/10/31 05:40:37;;;;;;;2.13;0.95;;;;;;;;;;5038985;28;20443;-83
2023/10/31 05:43:03;;;;;;;0.90;0.73;;;;;;;;;;5038503;28;20133;-83
2023/10/31 05:45:29;;;;;;;1.00;0.88;;;;;;;;;;5038606;28;20052;-82
2023/10/31 05:47:55;;;;;;;4.50;1.30;;;;;;;;;;5054957;28;20039;-85
2023/10/31 05:50:21;;;;;;;1.55;1.25;;;;;;;;;;5038172;28;20050;-85
2023/10/31 05:52:47;;;;;;;2.65;1.17;;;;;;;;;;5038431;28;20040;-85
2023/10/31 05:55:13;;;;;;;1.23;0.90;;;;;;;;;;5054613;28;20048;-85
2023/10/31 05:57:40;;;;;;;3.78;1.13;;;;;;;;;;5054847;28;20041;-84
2023/10/31 06:00:07;;;;;;;2.38;1.17;;;10.40;99.90;;;;;;5038155;28;20040;-84
2023/10/31 06:02:33;;;;;;;2.05;0.98;;;;;;;;;;5054432;28;20101;-85
2023/10/31 06:04:59;;;;;;;1.08;1.00;;;;;;;;;;5038055;28;20083;-85
2023/10/31 06:07:25;;;;;;;3.17;1.20;;;;;;;;;;5038132;28;20048;-84
2023/10/31 06:09:51;;;;;;;1.20;1.10;;;;;;;;;;5038353;28;20052;-85
2023/10/31 06:12:17;;;;;;;1.65;1.42;;;;;;;;;;5038587;28;20416;-84
2023/10/31 06:14:43;;;;;;;3.42;1.08;;;;;;;;;;5055003;28;20507;-85
2023/10/31 06:17:09;;;;;;;8.77;1.70;;;;;;;;;;5037969;28;20143;-83
2023/10/31 06:19:36;;;;;;;2.47;1.20;;;10.50;99.90;;;;;;5036752;28;20044;-84
2023/10/31 06:22:02;;;;;;;2.70;1.30;;;;;;;;;;5037801;28;20572;-85
2023/10/31 06:24:28;;;;;;;2.38;2.00;;;;;;;;;;5054387;28;20071;-85
2023/10/31 06:26:54;;;;;;;3.03;1.50;;;;;;;;;;5037497;28;20126;-83
2023/10/31 06:29:21;;;;;;;3.47;2.05;;;;;;;;;;5055766;28;20115;-85
2023/10/31 06:31:47;;;;;;;5.45;1.52;;;;;;;;;;5055074;28;20051;-85
2023/10/31 06:34:13;;;;;;;3.30;1.63;;;;;;;;;;5054641;28;20047;-85
2023/10/31 06:36:39;;;;;;;4.15;1.70;;;;;;;;;;5054480;28;20397;-85
2023/10/31 06:39:05;;;;;;;3.13;1.80;;;;;;;;;;5054327;28;20075;-84
2023/10/31 06:41:32;;;;;;;9.02;2.03;;;;;;;;;;5037734;28;20115;-84
2023/10/31 06:43:58;;;;;;;7.88;1.70;;;;;;;;;;5054081;28;20049;-86
2023/10/31 06:46:24;;;;;;;2.13;1.83;;;;;;;;;;5021718;28;20086;-85
2023/10/31 06:48:50;;;;;;;5.63;1.92;;;;;;;;;;5053572;28;20045;-85
2023/10/31 06:51:16;;;;;;;8.05;2.47;;;;;;;;;;5037450;28;20481;-83
2023/10/31 06:53:42;;;;;;;3.58;2.53;;;;;;;;;;5021063;28;20123;-84
2023/10/31 06:56:08;;;;;;;2.00;1.90;;;;;;;;;;5037353;28;20040;-83
2023/10/31 06:58:34;;;;;;;3.60;2.03;;;;;;;;;;5037010;28;20093;-84
2023/10/31 07:01:01;;;;;;;3.10;1.92;;;;;;;;;;5054024;28;20044;-85
2023/10/31 07:03:27;;;;;;;4.82;1.55;;;;;;;;;;5037389;28;20097;-86
2023/10/31 07:05:53;;;;;;;4.35;1.73;;;;;;;;;;5053357;28;20033;-85
2023/10/31 07:08:19;;;;;;;3.08;1.50;;;;;;;;;;5037285;28;20040;-85
2023/10/31 07:10:45;;;;;;;4.78;1.95;;;;;;;;;;5053819;28;20044;-85
2023/10/31 07:13:12;;;;;;;5.40;2.35;;;10.70;99.90;;;;;;5054154;28;20056;-85
2023/10/31 07:15:39;;;;;;;4.18;1.83;;;;;;;;;;5054276;28;20036;-85
2023/10/31 07:18:07;;;;;;;8.85;2.33;;;;;;;;;;5041203;28;20037;-85
2023/10/31 07:20:33;;;;;;;4.63;2.05;;;;;;;;;;5057642;28;20453;-83
2023/10/31 07:22:59;;;;;;;5.13;1.75;;;;;;;;;;5057487;28;20048;-85
2023/10/31 07:25:25;;;;;;;8.02;1.83;;;;;;;;;;5057758;28;20566;-86
2023/10/31 07:27:51;;;;;;;6.07;2.13;;;;;;;;;;5040705;28;20528;-84
2023/10/31 07:30:17;;;;;;;4.85;2.05;;;;;;;;;;5040940;28;20055;-86
2023/10/31 07:32:43;;;;;;;5.00;1.52;;;;;;;;;;5041019;28;20624;-84
2023/10/31 07:35:10;;;;;;;4.50;1.45;;;;;;;;;;5041053;28;20390;-86
2023/10/31 07:37:36;;;;;;;7.05;1.40;;;;;;;;;;5040938;28;20040;-86
2023/10/31 07:40:04;;;;;;;4.30;1.50;;;;;;;;;;5057388;28;20098;-86
2023/10/31 07:42:30;;;;;;;4.50;1.67;;;;;;;;;;5041065;28;20049;-86
2023/10/31 07:44:56;;;;;;;1.27;1.10;;;;;;;;;;5057683;28;20389;-85
2023/10/31 07:47:22;;;;;;;3.60;1.20;;;;;;;;;;5040958;28;20097;-86
2023/10/31 07:49:48;;;;;;;2.05;1.20;;;;;;;;;;5040663;28;20055;-85
2023/10/31 07:52:14;;;;;;;6.53;1.65;;;;;;;;;;5024247;28;20044;-84
2023/10/31 07:54:41;;;;;;;3.97;1.30;;;;;;;;;;5057439;28;20052;-84
2023/10/31 07:57:07;;;;;;;2.55;1.20;;;;;;;;;;5024178;28;20052;-85
2023/10/31 07:59:36;;;;;;;1.92;0.90;;;;;;;;;;5023780;28;20048;-85
2023/10/31 08:02:02;;;;;;;1.40;0.90;;;;;;;;;;5056960;28;20040;-85
2023/10/31 08:04:29;;;;;;;4.78;1.05;;;;;;;;;;5040267;28;20091;-85
2023/10/31 08:06:56;;;;;;;8.00;1.05;;;;;;;;;;5040836;28;20045;-85
2023/10/31 08:09:22;;;;;;;5.57;1.00;;;;;;;;;;5040183;28;20044;-85
2023/10/31 08:11:48;;;;;;;2.28;1.10;;;;;;;;;;5056840;28;20041;-85
2023/10/31 08:14:15;;;;;;;3.58;0.90;;;;;;;;;;5056843;28;20515;-84
2023/10/31 08:16:42;;;;;;;2.92;0.70;;;;;;;;;;5057003;28;20044;-85
2023/10/31 08:19:08;;;;;;;2.47;0.77;;;;;;;;;;5056820;28;20051;-85
2023/10/31 08:21:34;;;;;;;1.30;0.65;;;;;;;;;;5039775;28;20334;-84
2023/10/31 08:24:04;;;;;;;3.75;1.00;;;;;;;;;;5040150;28;20136;-84
2023/10/31 08:26:31;;;;;;;3.38;1.33;;;11.20;99.90;;;;;;5022968;28;20044;-85
2023/10/31 08:28:57;;;;;;;6.38;1.48;;;;;;;;;;5056577;28;20127;-81
2023/10/31 08:31:23;;;;;;;6.43;1.30;;;;;;;;;;5023338;28;20047;-82
2023/10/31 08:33:49;;;;;;;3.30;0.80;;;;;;;;;;5039663;28;20048;-82
2023/10/31 08:36:15;;;;;;;5.90;1.75;;;;;;;;;;5039925;28;20040;-81
2023/10/31 08:38:41;;;;;;;4.55;1.70;;;;;;;;;;5039525;28;20049;-83
2023/10/31 08:41:07;;;;;;;6.47;1.70;;;;;;;;;;5056367;28;20049;-82
2023/10/31 08:43:33;;;;;;;5.05;1.17;;;;;;;;;;5039869;28;20036;-83
2023/10/31 08:45:59;;;;;;;2.33;0.95;;;;;;;;;;5039838;28;20076;-81
2023/10/31 08:48:25;;;;;;;3.17;1.05;;;;;;;;;;5039487;28;20048;-82
2023/10/31 08:50:51;;;;;;;4.00;1.30;;;;;;;;;;5039696;28;20041;-82
2023/10/31 08:53:19;;;;;;;5.50;1.00;;;;;;;;;;5039712;28;20044;-82
2023/10/31 08:55:45;;;;;;;5.18;1.35;;;;;;;;;;5039418;28;20351;-82
2023/10/31 08:58:12;;;;;;;2.30;1.25;;;;;;;;;;5056030;28;20408;-83
2023/10/31 09:00:39;;;;;;;5.47;1.00;;;;;;;;;;5039570;28;20313;-82
2023/10/31 09:03:05;;;;;;;3.42;1.15;;;;;;;;;;5039573;28;20466;-81
2023/10/31 09:05:31;;;;;;;10.93;1.38;;;;;;;;;;5039723;28;20370;-81
2023/10/31 09:07:57;;;;;;;3.97;1.05;;;;;;;;;;5039212;28;20072;-82
2023/10/31 09:10:23;;;;;;;4.93;0.85;;;;;;;;;;5055797;28;20056;-81
2023/10/31 09:12:49;;;;;;;3.42;0.90;;;;;;;;;;5039356;28;20240;-81
2023/10/31 09:15:15;;;;;;;5.18;0.93;;;;;;;;;;5039225;28;20082;-81
2023/10/31 09:17:42;;;;;;;6.38;0.88;;;;;;;;;;5055757;28;20055;-81
2023/10/31 09:20:08;;;;;;;1.30;0.63;;;;;;;;;;5038979;28;20055;-82
2023/10/31 09:22:34;;;;;;;2.55;1.20;;;;;;;;;;5022413;28;20098;-83
2023/10/31 09:25:00;;;;;;;2.70;0.80;;;;;;;;;;5055473;28;20048;-82
2023/10/31 09:27:26;;;;;;;1.45;0.80;;;;;;;;;;5022631;28;20137;-82
2023/10/31 09:29:52;;;;;;;4.50;1.08;;;;;;;;;;5038890;28;20048;-83
2023/10/31 09:32:18;;;;;;;3.88;1.00;;;;;;;;;;5022314;28;20040;-83
2023/10/31 09:34:44;;;;;;;6.75;1.02;;;;;;;;;;5055264;28;20052;-84
2023/10/31 09:37:11;;;;;;;8.07;1.40;;;;;;;;;;5054929;28;20044;-84
2023/10/31 09:39:37;;;;;;;4.18;0.82;;;;;;;;;;5037973;28;20127;-84
2023/10/31 09:42:03;;;;;;;5.35;1.13;;;;;;;;;;5055071;28;20519;-84
2023/10/31 09:44:29;;;;;;;5.55;1.10;;;;;;;;;;5038560;28;20049;-84
2023/10/31 09:46:56;;;;;;;5.45;1.35;;;;;;;;;;5022359;28;20041;-85
2023/10/31 09:49:22;;;;;;;3.72;1.40;;;;;;;;;;5054907;28;20080;-83
2023/10/31 09:51:48;;;;;;;1.80;1.13;;;;;;;;;;5038584;28;20079;-84
2023/10/31 09:54:15;;;;;;;7.38;1.38;;;;;;;;;;5054471;28;20048;-85
2023/10/31 09:56:43;;;;;;;4.97;1.25;;;;;;;;;;5038071;28;20156;-83
2023/10/31 09:59:10;;;;;;;4.82;0.82;;;;;;;;;;5054258;28;20505;-83
2023/10/31 10:01:36;;;;;;;4.72;1.00;;;;;;;;;;5038229;28;20055;-83
2023/10/31 10:04:02;;;;;;;3.58;0.95;;;;;;;;;;5054660;28;20557;-84
2023/10/31 10:06:28;;;;;;;2.72;1.00;;;;;;;;;;5054566;28;20496;-83
2023/10/31 10:08:56;;;;;;;2.10;0.90;;;11.40;99.90;;;;;;5038109;28;20048;-83
2023/10/31 10:11:22;;;;;;;4.88;0.93;;;;;;;;;;5055031;28;20105;-83
2023/10/31 10:13:48;;;;;;;6.93;0.80;;;;;;;;;;5054534;28;20040;-83
2023/10/31 10:16:28;;;;;;;2.90;1.20;;;;;;;;;;5021614;28;20044;-80
2023/10/31 10:18:54;;;;;;;8.05;1.20;;;;;;;;;;5054596;28;20413;-80
2023/10/31 10:21:20;;;;;;;3.30;1.27;;;;;;;;;;5021781;28;20451;-81
2023/10/31 10:23:48;;;;;;;6.47;1.30;;;11.40;99.90;;;;;;5021262;28;20561;-82
2023/10/31 10:26:14;;;;;;;4.68;1.27;;;;;;;;;;5021452;28;20129;-81
2023/10/31 10:28:40;;;;;;;4.93;1.15;;;;;;;;;;5053911;28;20044;-80
2023/10/31 10:31:06;;;;;;;5.35;1.05;;;;;;;;;;5054548;28;20401;-81
2023/10/31 10:33:34;;;;;;;2.65;0.70;;;11.20;99.90;;;;;;5038024;28;20056;-83
2023/10/31 10:36:00;;;;;;;4.15;1.50;;;;;;;;;;5037867;28;20059;-82
2023/10/31 10:38:27;;;;;;;5.82;0.95;;;;;;;;;;5037730;28;20075;-83
2023/10/31 10:40:55;;;;;;;8.43;1.42;;;11.50;99.90;;;;;;5054347;28;20052;-81
2023/10/31 10:43:25;;;;;;;2.22;0.98;;;11.50;99.90;;;;;;5037452;28;20079;-81
2023/10/31 10:45:57;;;;;;;4.18;1.17;;;11.80;99.90;;;;;;5054226;28;20142;-81
2023/10/31 10:48:24;;;;;;;5.25;1.20;;;;;;;;;;5037615;28;20413;-80
2023/10/31 10:50:57;;;;;;;2.35;1.30;;;;;;;;;;5053940;28;20045;-81
2023/10/31 10:53:27;;;;;;;2.58;1.08;;;;;;;;;;5054874;28;20087;-81
2023/10/31 10:56:03;;;;;;;2.45;1.10;;;11.70;99.90;;;;;;5036971;28;20055;-83
2023/10/31 10:58:42;;;;;;;1.88;0.80;;;;;;;;;;5054138;28;20136;-82
2023/10/31 11:01:09;;;;;;;2.35;0.95;;;11.70;99.90;;;;;;5053954;28;20401;-82
2023/10/31 11:03:35;;;;;;;3.58;1.48;;;;;;;;;;5054024;28;20053;-82
2023/10/31 11:06:01;;;;;;;4.28;1.27;;;;;;;;;;5053889;28;20045;-80
2023/10/31 11:08:28;;;;;;;2.85;1.15;;;11.80;99.90;;;;;;5054304;28;20041;-82
2023/10/31 11:10:54;;;;;;;5.70;0.90;;;;;;;;;;5053800;28;20494;-81
2023/10/31 11:13:21;;;;;;;7.70;1.05;;;;;;;;;;5037463;28;20053;-81
2023/10/31 11:15:51;;;;;;;4.18;1.27;;;11.60;99.90;;;;;;5053670;28;20123;-83
2023/10/31 11:18:17;;;;;;;7.53;1.20;;;;;;;;;;5053824;28;20052;-82
2023/10/31 11:20:43;;;;;;;2.95;1.00;;;;;;;;;;5020712;28;20083;-82
2023/10/31 11:23:09;;;;;;;3.85;1.02;;;;;;;;;;5037339;28;20044;-82
2023/10/31 11:25:43;;;;;;;7.22;1.63;;;11.80;99.90;;;;;;5037119;28;20052;-82
2023/10/31 11:28:14;;;;;;;2.75;1.40;;;11.80;99.90;;;;;;5036805;28;20101;-82
2023/10/31 11:30:41;;;;;;;5.78;1.10;;;;;;;;;;5037308;28;20033;-82
2023/10/31 11:33:11;;;;;;;4.95;1.25;;;;;;;;;;5036984;28;20045;-83
2023/10/31 11:35:39;;;;;;;4.45;1.55;;;;;;;;;;5071812;28;20048;-82
2023/10/31 11:38:09;;;;;;;9.60;1.40;;;;;;;;;;5053476;28;20059;-82
2023/10/31 11:40:36;;;;;;;3.30;1.08;;;;;;;;;;5071346;28;20124;-83
2023/10/31 11:43:06;;;;;;;3.00;1.08;;;11.80;99.90;;;;;;5053477;28;20044;-83
2023/10/31 11:45:32;;;;;;;6.85;1.10;;;;;;;;;;5053324;28;20052;-81
2023/10/31 11:47:58;;;;;;;5.38;1.38;;;;;;;;;;5037003;28;20088;-80
2023/10/31 11:50:24;;;;;;;7.43;1.63;;;;;;;;;;5053328;28;20052;-81
2023/10/31 11:53:04;;;;;;;8.52;1.00;;;11.80;99.60;;;;;;5036695;28;20044;-80
2023/10/31 11:55:33;;;;;;;8.70;1.80;;;;;;;;;;5053111;28;20144;-81
2023/10/31 11:57:59;;;;;;;5.65;1.48;;;;;;;;;;5053355;28;20048;-80
2023/10/31 12:00:25;;;;;;;6.82;1.67;;;;;;;;;;5020077;28;20132;-81
2023/10/31 12:03:01;;;;;;;9.35;1.20;;;11.80;97.40;;;;;;5039985;28;20080;-82
2023/10/31 12:05:28;;;;;;;6.32;1.60;;;;;;;;;;5023755;28;20047;-81
2023/10/31 12:07:54;;;;;;;10.55;1.35;;;12.20;99.90;;;;;;5040222;28;20091;-81
2023/10/31 12:10:29;;;;;;;8.82;1.58;;;;;;;;;;5040276;28;20328;-81
2023/10/31 12:12:56;;;;;;;11.48;1.42;;;;;;;;;;5056979;28;20052;-82
2023/10/31 12:15:22;;;;;;;6.75;1.17;;;;;;;;;;5040034;28;20040;-82
2023/10/31 12:17:49;;;;;;;0.93;0.77;;;;;;;;;;5057055;28;20048;-82
2023/10/31 12:20:16;;;;;;;3.90;1.10;;;;;;;;;;5023620;28;20080;-83
2023/10/31 12:22:42;;;;;;;8.57;1.60;;;;;;;;;;5056360;28;20048;-83
2023/10/31 12:25:09;;;;;;;5.78;1.30;;;;;;;;;;5039850;28;20139;-82
2023/10/31 12:27:50;;;;;;;4.78;1.45;;;;;;;;;;5056497;28;20047;-82
2023/10/31 12:30:18;;;;;;;3.63;1.17;;;11.60;91.20;;;;;;5056196;28;20059;-81
2023/10/31 12:32:45;;;;;;;5.35;1.25;;;;;;;;;;5074182;28;20037;-82
2023/10/31 12:35:16;;;;;;;6.35;1.30;;;11.60;93.00;;;;;;5074289;28;20066;-81
2023/10/31 12:37:52;;;;;;;5.13;1.10;;;11.50;94.10;;;;;;5039653;28;20045;-81
2023/10/31 12:40:18;;;;;;;6.90;1.60;;;;;;;;;;5056338;28;20083;-82
2023/10/31 12:42:45;;;;;;;9.77;1.30;;;;;;;;;;5056308;28;20513;-81
2023/10/31 12:45:17;;;;;;;4.63;1.30;;;;;;;;;;5056310;28;20501;-83
2023/10/31 12:47:43;;;;;;;4.70;1.48;;;;;;;;;;5056257;28;20490;-82
2023/10/31 12:50:10;;;;;;;2.25;1.10;;;11.20;95.20;;;;;;5039399;28;20088;-81
2023/10/31 12:52:52;;;;;;;9.07;1.70;;;11.50;98.10;;;;;;5074108;28;20037;-81
2023/10/31 12:55:22;;;;;;;7.60;1.90;;;11.30;95.20;;;;;;5056122;28;20055;-81
2023/10/31 12:57:49;;;;;;;5.68;1.60;;;11.40;97.10;;;;;;5055550;28;20430;-82
2023/10/31 13:00:18;;;;;;;2.47;1.38;;;;;;;;;;5074050;28;20114;-80
2023/10/31 13:02:44;;;;;;;3.65;1.13;;;;;;;;;;5056013;28;20106;-81
2023/10/31 13:05:12;;;;;;;4.32;1.20;;;;;;;;;;5038875;28;20051;-81
2023/10/31 13:07:38;;;;;;;5.18;1.25;;;;;;;;;;5056017;28;20087;-81
2023/10/31 13:10:05;;;;;;;5.50;1.25;;;;;;;;;;5056051;28;20047;-83
2023/10/31 13:12:31;;;;;;;7.78;1.35;;;;;;;;;;5039641;28;20045;-81
2023/10/31 13:14:57;;;;;;;7.85;1.15;;;;;;;;;;5056021;28;20051;-82
2023/10/31 13:17:23;;;;;;;11.15;1.58;;;;;;;;;;5055997;28;20599;-82
2023/10/31 13:19:49;;;;;;;2.53;1.35;;;;;;;;;;5038979;28;20546;-81
2023/10/31 13:22:16;;;;;;;6.28;1.50;;;;;;;;;;5039079;28;20040;-83
2023/10/31 13:24:42;;;;;;;6.07;1.30;;;;;;;;;;5039233;28;20102;-82
2023/10/31 13:27:11;;;;;;;6.32;1.65;;;;;;;;;;5038952;28;20052;-82
2023/10/31 13:29:38;;;;;;;2.88;1.13;;;;;;;;;;5055524;28;20060;-82
2023/10/31 13:32:04;;;;;;;1.90;1.42;;;;;;;;;;5038833;28;20040;-83
2023/10/31 13:34:32;;;;;;;3.80;1.20;;;;;;;;;;5039092;28;20044;-82
2023/10/31 13:36:58;;;;;;;4.72;1.13;;;;;;;;;;5038747;28;20044;-81
2023/10/31 13:39:24;;;;;;;4.43;1.40;;;;;;;;;;5055268;28;20132;-82
2023/10/31 13:41:50;;;;;;;3.15;1.05;;;;;;;;;;5055287;28;20044;-81
2023/10/31 13:44:17;;;;;;;4.93;1.10;;;;;;;;;;5038593;28;20051;-82
2023/10/31 13:46:43;;;;;;;13.48;1.77;;;;;;;;;;5038559;28;20135;-81
2023/10/31 13:49:09;;;;;;;0.95;0.73;;;;;;;;;;5021880;28;20044;-82
2023/10/31 13:51:35;;;;;;;2.33;0.88;;;11.40;99.90;;;;;;5054964;28;20045;-83
2023/10/31 13:54:02;;;;;;;5.55;1.40;;;;;;;;;;5038741;28;20113;-82
2023/10/31 13:56:28;;;;;;;6.15;1.00;;;;;;;;;;5038183;28;20044;-82
2023/10/31 13:58:54;;;;;;;6.75;1.45;;;;;;;;;;5038006;28;20041;-83
2023/10/31 14:01:24;;;;;;;3.03;1.20;;;;;;;;;;5054828;28;20048;-82
2023/10/31 14:03:50;;;;;;;2.67;1.02;;;;;;;;;;5038421;28;20133;-82
2023/10/31 14:06:17;;;;;;;7.80;1.42;;;;;;;;;;5038288;28;20048;-83
2023/10/31 14:08:43;;;;;;;5.82;1.10;;;;;;;;;;5022022;28;20051;-84
2023/10/31 14:11:09;;;;;;;9.90;1.15;;;;;;;;;;5037883;28;20047;-84
2023/10/31 14:13:40;;;;;;;5.97;1.30;;;;;;;;;;5038034;28;20497;-84
2023/10/31 14:16:06;;;;;;;2.10;1.00;;;;;;;;;;5038129;28;20051;-84
2023/10/31 14:18:33;;;;;;;4.25;1.08;;;;;;;;;;5054396;28;20071;-84
2023/10/31 14:20:59;;;;;;;8.75;1.13;;;;;;;;;;5021404;28;20044;-83
2023/10/31 14:23:25;;;;;;;3.47;0.90;;;;;;;;;;5021161;28;20040;-84
2023/10/31 14:25:52;;;;;;;1.88;1.10;;;;;;;;;;5054112;28;20568;-84